Biklabito, New Mexico
Current Conditions -  °F | °C
As of 2:53 PM on Tuesday 25 Nov 2014 (Local Time) from KFMN Reporting Station
Clear Clear  
Wind Chill: 36°   Ceiling: Unl
Heat Index: 45°   Visibility: 10mi
Dew Point: -1°   Wind: 24mph
Humidity: 15%   Direction: 280°W
Pressure: 30.29"   Gusts: 31mph
Location:  36.3945°N, 108.769°W
Report Text: KFMN 252153Z 28021G27KT 10SM CLR 07/M18 A3029 RMK AO2 PK WND 28027/2153 SLP275 T00721183
Loading
Personal Weather Stations






























Interactive Weather Map New forecast layout! Learn more

10-Day Weather Forecast

Advertisements
Track Severe Weather on mobile